Time,TemperatureF,DewpointF,PressureIn,WindDirection,WindDirectionDegrees,WindSpeedMPH,WindSpeedGustMPH,Humidity,HourlyPrecipIn,Conditions,Clouds,dailyrainin,SoftwareType,DateUTC
2013-06-04 00:01:00,58.8,35.2,30.03,ESE,108,6.3,8.3,41,0.00,,---,0.00,VWS V14.01,2013-06-04 05:01:00,
2013-06-04 00:06:00,58.8,35.8,30.03,ENE,74,5.8,8.7,42,0.00,,---,0.00,VWS V14.01,2013-06-04 05:06:00,
2013-06-04 00:12:00,58.8,37.0,30.03,East,92,6.3,8.7,44,0.00,,---,0.00,VWS V14.01,2013-06-04 05:12:00,
2013-06-04 00:18:00,58.6,35.6,30.03,ESE,102,7.6,8.1,42,0.00,,---,0.00,VWS V14.01,2013-06-04 05:18:00,
2013-06-04 00:23:00,58.5,36.1,30.00,East,96,5.4,8.7,43,0.00,,---,0.00,VWS V14.01,2013-06-04 05:23:00,
2013-06-04 00:28:00,58.3,37.0,30.00,East,96,10.5,14.1,45,0.00,,---,0.00,VWS V14.01,2013-06-04 05:28:00,
2013-06-04 00:33:00,57.9,35.0,30.00,East,89,6.3,10.1,42,0.00,,---,0.00,VWS V14.01,2013-06-04 05:33:00,
2013-06-04 00:39:00,57.7,36.0,30.00,ESE,113,8.1,10.1,44,0.00,,---,0.00,VWS V14.01,2013-06-04 05:39:00,
2013-06-04 00:44:00,57.7,35.4,30.00,East,99,8.1,8.1,43,0.00,,---,0.00,VWS V14.01,2013-06-04 05:44:00,
2013-06-04 00:50:00,57.6,36.4,30.00,ESE,104,8.1,8.7,45,0.00,,---,0.00,VWS V14.01,2013-06-04 05:50:00,
2013-06-04 00:56:00,57.4,35.1,29.97,ESE,121,6.3,10.1,43,0.00,,---,0.00,VWS V14.01,2013-06-04 05:56:00,
2013-06-04 01:02:00,57.2,36.1,29.97,ESE,105,8.3,10.5,45,0.00,,---,0.00,VWS V14.01,2013-06-04 06:02:00,
2013-06-04 01:07:00,57.2,36.1,30.00,ENE,69,7.6,7.6,45,0.00,,---,0.00,VWS V14.01,2013-06-04 06:07:00,
2013-06-04 01:12:00,57.4,36.2,30.00,ESE,104,3.6,6.3,45,0.00,,---,0.00,VWS V14.01,2013-06-04 06:12:00,
2013-06-04 01:18:00,57.6,36.4,30.00,ESE,105,3.6,5.8,45,0.00,,---,0.00,VWS V14.01,2013-06-04 06:18:00,
2013-06-04 01:24:00,57.6,35.8,30.00,East,100,5.4,8.7,44,0.00,,---,0.00,VWS V14.01,2013-06-04 06:24:00,
2013-06-04 01:29:00,57.6,35.8,30.00,East,97,5.4,10.5,44,0.00,,---,0.00,VWS V14.01,2013-06-04 06:29:00,
2013-06-04 01:35:00,57.6,36.4,30.00,East,100,6.3,6.3,45,0.00,,---,0.00,VWS V14.01,2013-06-04 06:35:00,
2013-06-04 01:40:00,57.6,35.8,30.00,ESE,106,7.6,7.6,44,0.00,,---,0.00,VWS V14.01,2013-06-04 06:40:00,
2013-06-04 01:46:00,57.4,36.2,30.00,ESE,116,8.3,8.3,45,0.00,,---,0.00,VWS V14.01,2013-06-04 06:46:00,
2013-06-04 01:51:00,57.2,35.5,30.00,East,87,7.6,8.3,44,0.00,,---,0.00,VWS V14.01,2013-06-04 06:51:00,
2013-06-04 01:57:00,57.0,36.5,30.03,ESE,114,7.6,8.7,46,0.00,,---,0.00,VWS V14.01,2013-06-04 06:57:00,
2013-06-04 02:03:00,56.8,35.7,30.03,ESE,103,6.3,8.1,45,0.00,,---,0.00,VWS V14.01,2013-06-04 07:03:00,
2013-06-04 02:08:00,56.7,35.6,30.03,SE,124,6.3,7.2,45,0.00,,---,0.00,VWS V14.01,2013-06-04 07:08:00,
2013-06-04 02:13:00,56.5,36.0,30.03,East,96,8.1,8.1,46,0.00,,---,0.00,VWS V14.01,2013-06-04 07:13:00,
2013-06-04 02:18:00,56.5,36.0,30.03,East,92,5.4,5.8,46,0.00,,---,0.00,VWS V14.01,2013-06-04 07:18:00,
2013-06-04 02:24:00,56.3,35.8,30.03,ESE,103,4.9,8.1,46,0.00,,---,0.00,VWS V14.01,2013-06-04 07:24:00,
2013-06-04 02:29:00,56.3,36.9,30.03,ESE,110,3.6,4.0,48,0.00,,---,0.00,VWS V14.01,2013-06-04 07:29:00,
2013-06-04 02:34:00,56.5,36.5,30.03,ESE,105,5.4,5.8,47,0.00,,---,0.00,VWS V14.01,2013-06-04 07:34:00,
2013-06-04 02:39:00,56.7,36.1,30.06,ESE,109,3.6,3.6,46,0.00,,---,0.00,VWS V14.01,2013-06-04 07:39:00,
2013-06-04 02:44:00,56.7,36.1,30.06,East,100,0.0,0.0,46,0.00,,---,0.00,VWS V14.01,2013-06-04 07:44:00,
2013-06-04 02:49:00,56.5,36.0,30.06,East,100,0.0,0.0,46,0.00,,---,0.00,VWS V14.01,2013-06-04 07:49:00,
2013-06-04 02:55:00,56.1,36.2,30.06,East,100,0.0,0.0,47,0.00,,---,0.00,VWS V14.01,2013-06-04 07:55:00,
2013-06-04 03:00:00,55.9,36.0,30.06,East,99,0.0,0.0,47,0.00,,---,0.00,VWS V14.01,2013-06-04 08:00:00,
2013-06-04 03:06:00,55.8,36.4,30.06,East,100,0.0,0.0,48,0.00,,---,0.00,VWS V14.01,2013-06-04 08:06:00,
2013-06-04 03:11:00,55.4,36.1,30.06,East,100,0.0,0.0,48,0.00,,---,0.00,VWS V14.01,2013-06-04 08:11:00,
2013-06-04 03:16:00,55.4,36.1,30.06,East,99,0.0,0.0,48,0.00,,---,0.00,VWS V14.01,2013-06-04 08:16:00,
2013-06-04 03:22:00,55.2,36.4,30.06,East,100,0.0,0.0,49,0.00,,---,0.00,VWS V14.01,2013-06-04 08:22:00,
2013-06-04 03:27:00,55.4,36.6,30.06,East,100,0.0,0.0,49,0.00,,---,0.00,VWS V14.01,2013-06-04 08:27:00,
2013-06-04 03:32:00,55.6,37.8,30.06,East,100,2.7,2.7,51,0.00,,---,0.00,VWS V14.01,2013-06-04 08:32:00,
2013-06-04 03:38:00,55.8,37.9,30.03,ESE,109,5.4,5.4,51,0.00,,---,0.00,VWS V14.01,2013-06-04 08:38:00,
2013-06-04 03:44:00,55.8,37.4,30.03,ESE,109,8.7,12.8,50,0.00,,---,0.00,VWS V14.01,2013-06-04 08:44:00,
2013-06-04 03:49:00,56.3,36.3,30.03,ESE,114,11.0,15.0,47,0.00,,---,0.00,VWS V14.01,2013-06-04 08:49:00,
2013-06-04 03:55:00,56.7,35.6,30.00,ESE,108,8.3,11.0,45,0.00,,---,0.00,VWS V14.01,2013-06-04 08:55:00,
2013-06-04 04:00:00,56.7,35.6,30.00,ESE,102,11.0,11.0,45,0.00,,---,0.00,VWS V14.01,2013-06-04 09:00:00,
2013-06-04 04:06:00,57.0,35.9,30.00,ESE,110,6.3,12.8,45,0.00,,---,0.00,VWS V14.01,2013-06-04 09:06:00,
2013-06-04 04:12:00,57.2,35.5,30.00,ESE,117,7.6,11.9,44,0.00,,---,0.00,VWS V14.01,2013-06-04 09:12:00,
2013-06-04 04:17:00,57.2,36.1,30.00,SSE,149,10.5,10.5,45,0.00,,---,0.00,VWS V14.01,2013-06-04 09:17:00,
2013-06-04 04:23:00,57.4,36.2,30.00,SE,127,5.8,12.3,45,0.00,,---,0.00,VWS V14.01,2013-06-04 09:23:00,
2013-06-04 04:28:00,57.4,36.2,30.00,ESE,103,10.5,14.1,45,0.00,,---,0.00,VWS V14.01,2013-06-04 09:28:00,
2013-06-04 04:34:00,57.4,35.7,30.00,SE,125,7.6,8.3,44,0.00,,---,0.00,VWS V14.01,2013-06-04 09:34:00,
2013-06-04 04:39:00,57.4,36.2,30.00,ESE,118,6.3,8.1,45,0.00,,---,0.00,VWS V14.01,2013-06-04 09:39:00,
2013-06-04 04:45:00,57.4,36.2,30.00,SE,125,10.5,10.5,45,0.00,,---,0.00,VWS V14.01,2013-06-04 09:45:00,
2013-06-04 04:52:00,57.4,35.7,30.00,ESE,106,11.0,11.0,44,0.00,,---,0.00,VWS V14.01,2013-06-04 09:52:00,
2013-06-04 04:57:00,57.2,35.5,30.00,ESE,122,6.7,8.1,44,0.00,,---,0.00,VWS V14.01,2013-06-04 09:57:00,
2013-06-04 05:02:00,57.2,36.1,30.00,SE,125,8.7,12.8,45,0.00,,---,0.00,VWS V14.01,2013-06-04 10:02:00,
2013-06-04 05:07:00,57.2,35.5,30.00,ESE,113,8.7,11.0,44,0.00,,---,0.00,VWS V14.01,2013-06-04 10:07:00,
2013-06-04 05:13:00,57.0,35.9,30.00,ESE,112,8.1,11.4,45,0.00,,---,0.00,VWS V14.01,2013-06-04 10:13:00,
2013-06-04 05:18:00,57.0,35.3,30.00,ESE,106,8.1,12.3,44,0.00,,---,0.00,VWS V14.01,2013-06-04 10:18:00,
2013-06-04 05:23:00,57.0,35.9,29.97,ESE,113,7.6,10.5,45,0.00,,---,0.00,VWS V14.01,2013-06-04 10:23:00,
2013-06-04 05:29:00,56.7,36.7,29.97,ESE,123,8.3,10.1,47,0.00,,---,0.00,VWS V14.01,2013-06-04 10:29:00,
2013-06-04 05:34:00,56.3,37.4,29.97,ESE,115,5.8,5.8,49,0.00,,---,0.00,VWS V14.01,2013-06-04 10:34:00,
2013-06-04 05:39:00,55.9,36.5,29.97,ESE,114,10.5,10.5,48,0.00,,---,0.00,VWS V14.01,2013-06-04 10:39:00,
2013-06-04 05:44:00,55.8,37.4,29.97,ESE,114,10.5,10.5,50,0.00,,---,0.00,VWS V14.01,2013-06-04 10:44:00,
2013-06-04 05:49:00,55.4,37.1,29.97,ESE,106,4.9,4.9,50,0.00,,---,0.00,VWS V14.01,2013-06-04 10:49:00,
2013-06-04 05:55:00,55.4,36.6,29.97,ESE,104,6.3,11.0,49,0.00,,---,0.00,VWS V14.01,2013-06-04 10:55:00,
2013-06-04 06:00:00,55.6,36.7,29.97,ESE,106,9.6,9.6,49,0.00,,---,0.00,VWS V14.01,2013-06-04 11:00:00,
2013-06-04 06:07:00,55.6,36.7,29.97,ESE,107,11.0,11.0,49,0.00,,---,0.00,VWS V14.01,2013-06-04 11:07:00,
2013-06-04 06:12:00,55.4,36.1,29.97,ESE,107,10.1,13.2,48,0.00,,---,0.00,VWS V14.01,2013-06-04 11:12:00,
2013-06-04 06:17:00,55.6,36.2,29.97,East,95,8.7,8.7,48,0.00,,---,0.00,VWS V14.01,2013-06-04 11:17:00,
2013-06-04 06:23:00,55.8,36.4,29.97,East,89,8.3,8.3,48,0.00,,---,0.00,VWS V14.01,2013-06-04 11:23:00,
2013-06-04 06:28:00,55.8,35.8,29.97,East,101,8.3,12.3,47,0.00,,---,0.00,VWS V14.01,2013-06-04 11:28:00,
2013-06-04 06:34:00,55.6,35.7,29.97,ESE,104,8.1,11.0,47,0.00,,---,0.00,VWS V14.01,2013-06-04 11:34:00,
2013-06-04 06:39:00,55.8,35.8,30.00,ESE,117,10.1,10.1,47,0.00,,---,0.00,VWS V14.01,2013-06-04 11:39:00,
2013-06-04 06:45:00,55.9,36.5,30.00,ESE,103,8.1,8.7,48,0.00,,---,0.00,VWS V14.01,2013-06-04 11:45:00,
2013-06-04 06:50:00,55.8,35.8,30.00,ESE,115,5.4,11.0,47,0.00,,---,0.00,VWS V14.01,2013-06-04 11:50:00,
2013-06-04 06:55:00,55.8,36.4,30.00,ESE,106,5.8,10.5,48,0.00,,---,0.00,VWS V14.01,2013-06-04 11:55:00,
2013-06-04 07:01:00,55.8,35.8,30.00,East,95,7.6,11.9,47,0.00,,---,0.00,VWS V14.01,2013-06-04 12:01:00,
2013-06-04 07:06:00,55.8,35.8,30.00,ESE,117,7.2,10.5,47,0.00,,---,0.00,VWS V14.01,2013-06-04 12:06:00,
2013-06-04 07:12:00,55.9,37.1,30.00,ENE,73,6.3,8.1,49,0.00,,---,0.00,VWS V14.01,2013-06-04 12:12:00,
2013-06-04 07:17:00,55.9,36.0,30.00,East,87,8.7,10.1,47,0.00,,---,0.00,VWS V14.01,2013-06-04 12:17:00,
2013-06-04 07:22:00,55.9,36.0,30.00,ESE,102,7.6,7.6,47,0.00,,---,0.00,VWS V14.01,2013-06-04 12:22:00,
2013-06-04 07:28:00,55.9,36.5,30.00,East,99,5.4,8.1,48,0.00,,---,0.00,VWS V14.01,2013-06-04 12:28:00,
2013-06-04 07:33:00,55.9,36.5,30.00,East,92,9.2,9.2,48,0.00,,---,0.00,VWS V14.01,2013-06-04 12:33:00,
2013-06-04 07:38:00,55.8,36.4,30.03,ENE,71,7.6,10.1,48,0.00,,---,0.00,VWS V14.01,2013-06-04 12:38:00,
2013-06-04 07:43:00,55.8,36.4,30.03,East,100,6.3,8.3,48,0.00,,---,0.00,VWS V14.01,2013-06-04 12:43:00,
2013-06-04 07:49:00,55.6,36.7,30.03,East,90,7.6,7.6,49,0.00,,---,0.00,VWS V14.01,2013-06-04 12:49:00,
2013-06-04 07:54:00,55.6,36.7,30.03,East,100,2.7,6.3,49,0.00,,---,0.00,VWS V14.01,2013-06-04 12:54:00,
2013-06-04 08:00:00,55.4,36.6,30.03,ENE,71,3.6,5.8,49,0.00,,---,0.00,VWS V14.01,2013-06-04 13:00:00,
2013-06-04 08:05:00,55.6,37.8,30.03,East,86,5.4,5.8,51,0.00,,---,0.00,VWS V14.01,2013-06-04 13:05:00,
2013-06-04 08:11:00,55.6,38.2,30.03,NE,54,5.8,7.6,52,0.00,,---,0.00,VWS V14.01,2013-06-04 13:11:00,
2013-06-04 08:17:00,55.2,37.9,30.03,ENE,58,4.0,10.5,52,0.00,,---,0.00,VWS V14.01,2013-06-04 13:17:00,
2013-06-04 08:22:00,55.4,38.6,30.03,ENE,64,4.0,8.7,53,0.00,,---,0.00,VWS V14.01,2013-06-04 13:22:00,
2013-06-04 08:27:00,55.4,39.0,30.03,East,83,6.3,8.1,54,0.00,,---,0.00,VWS V14.01,2013-06-04 13:27:00,
2013-06-04 08:32:00,55.4,39.0,30.03,NE,47,7.6,7.6,54,0.00,,---,0.00,VWS V14.01,2013-06-04 13:32:00,
2013-06-04 08:37:00,55.2,38.9,30.03,ENE,73,5.8,7.2,54,0.00,,---,0.00,VWS V14.01,2013-06-04 13:37:00,
2013-06-04 08:43:00,55.0,39.7,30.03,NE,52,5.8,5.8,56,0.00,,---,0.00,VWS V14.01,2013-06-04 13:43:00,
2013-06-04 08:48:00,54.5,39.1,30.03,ENE,59,6.3,8.3,56,0.00,,---,0.00,VWS V14.01,2013-06-04 13:48:00,
2013-06-04 08:54:00,54.7,39.8,30.06,East,84,5.8,6.3,57,0.00,,---,0.00,VWS V14.01,2013-06-04 13:54:00,
2013-06-04 08:59:00,54.5,40.0,30.06,ENE,68,4.0,4.0,58,0.00,,---,0.00,VWS V14.01,2013-06-04 13:59:00,
2013-06-04 09:04:00,53.6,41.7,30.06,ENE,68,4.0,4.0,64,0.00,,---,0.00,VWS V14.01,2013-06-04 14:04:00,
2013-06-04 09:10:00,52.7,42.1,30.06,ENE,68,4.0,4.0,67,0.00,,---,0.00,VWS V14.01,2013-06-04 14:10:00,
2013-06-04 09:15:00,52.3,42.5,30.06,ENE,68,4.0,4.0,69,0.00,,---,0.00,VWS V14.01,2013-06-04 14:15:00,
2013-06-04 09:21:00,52.0,43.2,30.06,NE,37,8.3,8.3,72,0.00,,---,0.00,VWS V14.01,2013-06-04 14:21:00,
2013-06-04 09:26:00,51.4,42.7,30.06,NE,34,8.1,8.1,72,0.00,,---,0.00,VWS V14.01,2013-06-04 14:26:00,
2013-06-04 09:32:00,51.3,42.9,30.06,NNE,15,4.0,5.8,73,0.00,,---,0.00,VWS V14.01,2013-06-04 14:32:00,
2013-06-04 09:37:00,51.3,42.9,30.09,NNE,14,7.2,7.2,73,0.00,,---,0.00,VWS V14.01,2013-06-04 14:37:00,
2013-06-04 09:43:00,51.8,44.1,30.09,NNE,30,8.7,8.7,75,0.00,,---,0.00,VWS V14.01,2013-06-04 14:43:00,
2013-06-04 09:49:00,51.8,45.8,30.09,ENE,75,8.1,8.1,80,0.00,,---,0.00,VWS V14.01,2013-06-04 14:49:00,
2013-06-04 09:55:00,51.6,46.0,30.06,ESE,104,12.8,12.8,81,0.00,,---,0.00,VWS V14.01,2013-06-04 14:55:00,
2013-06-04 10:00:00,51.6,47.0,30.06,ESE,104,12.8,12.8,84,0.00,,---,0.00,VWS V14.01,2013-06-04 15:00:00,
2013-06-04 10:05:00,51.8,47.4,30.06,ESE,104,12.8,12.8,85,0.00,,---,0.00,VWS V14.01,2013-06-04 15:05:00,
2013-06-04 10:11:00,51.6,47.6,30.06,East,99,8.1,12.8,86,0.00,,---,0.00,VWS V14.01,2013-06-04 15:11:00,
2013-06-04 10:17:00,52.0,48.2,30.06,East,99,8.1,8.1,87,0.00,,---,0.00,VWS V14.01,2013-06-04 15:17:00,
2013-06-04 10:22:00,52.3,48.9,30.06,ESE,115,15.0,15.0,88,0.00,,---,0.00,VWS V14.01,2013-06-04 15:22:00,
2013-06-04 10:28:00,52.5,49.4,30.06,ESE,118,7.6,15.0,89,0.00,,---,0.00,VWS V14.01,2013-06-04 15:28:00,
2013-06-04 10:33:00,52.9,49.7,30.06,ESE,102,12.8,12.8,89,0.00,,---,0.00,VWS V14.01,2013-06-04 15:33:00,
2013-06-04 10:39:00,53.1,49.9,30.06,ESE,102,12.8,12.8,89,0.00,,---,0.00,VWS V14.01,2013-06-04 15:39:00,
2013-06-04 10:45:00,53.2,50.4,30.06,ESE,109,10.1,12.8,90,0.00,,---,0.00,VWS V14.01,2013-06-04 15:45:00,
2013-06-04 10:50:00,53.6,50.7,30.06,East,94,11.0,11.0,90,0.00,,---,0.00,VWS V14.01,2013-06-04 15:50:00,
2013-06-04 10:55:00,53.4,50.9,30.06,East,88,5.4,5.8,91,0.00,,---,0.00,VWS V14.01,2013-06-04 15:55:00,
2013-06-04 11:01:00,53.8,51.2,30.06,East,88,5.4,5.4,91,0.00,,---,0.00,VWS V14.01,2013-06-04 16:01:00,
2013-06-04 11:06:00,54.3,51.8,30.06,SE,124,10.5,10.5,91,0.00,,---,0.00,VWS V14.01,2013-06-04 16:06:00,
2013-06-04 11:11:00,54.1,51.6,30.03,SE,124,10.5,10.5,91,0.00,,---,0.00,VWS V14.01,2013-06-04 16:11:00,
2013-06-04 11:17:00,54.1,51.6,30.03,ESE,108,12.3,12.3,91,0.00,,---,0.00,VWS V14.01,2013-06-04 16:17:00,
2013-06-04 11:22:00,54.5,51.9,30.03,East,99,7.6,11.0,91,0.00,,---,0.00,VWS V14.01,2013-06-04 16:22:00,
2013-06-04 11:27:00,54.5,51.9,30.03,ESE,105,8.1,13.2,91,0.00,,---,0.00,VWS V14.01,2013-06-04 16:27:00,
2013-06-04 11:32:00,54.9,52.3,30.03,ESE,113,11.9,13.2,91,0.00,,---,0.00,VWS V14.01,2013-06-04 16:32:00,
2013-06-04 11:38:00,55.8,53.2,30.03,East,97,10.5,10.5,91,0.00,,---,0.00,VWS V14.01,2013-06-04 16:38:00,
2013-06-04 11:44:00,55.8,52.9,30.03,ENE,78,8.3,10.1,90,0.00,,---,0.00,VWS V14.01,2013-06-04 16:44:00,
2013-06-04 11:49:00,55.9,52.8,30.03,East,96,11.0,11.0,89,0.00,,---,0.00,VWS V14.01,2013-06-04 16:49:00,
2013-06-04 11:55:00,56.3,52.5,30.03,ESE,121,7.6,8.7,87,0.00,,---,0.00,VWS V14.01,2013-06-04 16:55:00,
2013-06-04 12:02:00,56.3,51.5,30.03,ESE,112,11.0,11.0,84,0.00,,---,0.00,VWS V14.01,2013-06-04 17:02:00,
2013-06-04 12:08:00,56.5,51.7,30.03,East,85,10.1,11.0,84,0.00,,---,0.00,VWS V14.01,2013-06-04 17:08:00,
2013-06-04 12:14:00,56.7,51.2,30.03,East,99,8.3,15.0,82,0.00,,---,0.00,VWS V14.01,2013-06-04 17:14:00,
2013-06-04 12:20:00,57.2,51.1,30.03,SSE,149,8.7,8.7,80,0.00,,---,0.00,VWS V14.01,2013-06-04 17:20:00,
2013-06-04 12:25:00,57.2,50.8,30.03,ESE,119,8.7,8.7,79,0.00,,---,0.00,VWS V14.01,2013-06-04 17:25:00,
2013-06-04 12:30:00,57.0,50.2,30.03,ESE,117,10.1,11.0,78,0.00,,---,0.00,VWS V14.01,2013-06-04 17:30:00,
2013-06-04 12:36:00,56.8,50.1,30.03,ENE,66,11.0,11.0,78,0.00,,---,0.00,VWS V14.01,2013-06-04 17:36:00,
2013-06-04 12:41:00,57.0,50.6,30.03,East,100,6.7,7.6,79,0.00,,---,0.00,VWS V14.01,2013-06-04 17:41:00,
2013-06-04 12:47:00,57.0,50.6,30.03,ENE,62,5.4,7.6,79,0.00,,---,0.00,VWS V14.01,2013-06-04 17:47:00,
2013-06-04 12:53:00,57.2,50.8,30.03,NE,55,6.3,6.3,79,0.00,,---,0.00,VWS V14.01,2013-06-04 17:53:00,
2013-06-04 12:58:00,57.2,51.1,30.03,NE,54,6.3,6.3,80,0.00,,---,0.00,VWS V14.01,2013-06-04 17:58:00,
2013-06-04 13:03:00,57.6,51.8,30.03,NE,54,4.9,7.2,81,0.00,,---,0.00,VWS V14.01,2013-06-04 18:03:00,
2013-06-04 13:08:00,57.2,51.4,30.03,NE,51,8.7,11.0,81,0.00,,---,0.00,VWS V14.01,2013-06-04 18:08:00,
2013-06-04 13:14:00,57.0,51.6,30.03,NE,51,5.8,6.3,82,0.00,,---,0.00,VWS V14.01,2013-06-04 18:14:00,
2013-06-04 13:20:00,57.0,52.2,30.03,NE,50,7.6,7.6,84,0.00,,---,0.00,VWS V14.01,2013-06-04 18:20:00,
2013-06-04 13:26:00,57.2,53.4,30.03,East,85,6.3,6.3,87,0.00,,---,0.00,VWS V14.01,2013-06-04 18:26:00,
2013-06-04 13:31:00,57.2,54.0,30.03,ENE,69,4.0,4.0,89,0.00,,---,0.00,VWS V14.01,2013-06-04 18:31:00,
2013-06-04 13:37:00,57.4,54.5,30.03,ENE,69,4.0,4.0,90,0.00,,---,0.00,VWS V14.01,2013-06-04 18:37:00,
2013-06-04 13:43:00,57.4,54.8,30.03,ENE,69,4.0,4.0,91,0.00,,---,0.00,VWS V14.01,2013-06-04 18:43:00,
2013-06-04 13:48:00,57.4,55.1,30.03,ESE,103,7.6,7.6,92,0.00,,---,0.00,VWS V14.01,2013-06-04 18:48:00,
2013-06-04 13:54:00,57.6,55.3,30.03,ESE,108,9.6,9.6,92,0.00,,---,0.00,VWS V14.01,2013-06-04 18:54:00,
2013-06-04 13:59:00,57.9,55.6,30.03,ESE,108,9.6,9.6,92,0.00,,---,0.00,VWS V14.01,2013-06-04 18:59:00,
2013-06-04 14:05:00,57.9,55.9,30.03,ESE,108,9.6,9.6,93,0.00,,---,0.00,VWS V14.01,2013-06-04 19:05:00,
2013-06-04 14:11:00,58.1,56.1,30.03,ESE,118,11.9,11.9,93,0.00,,---,0.00,VWS V14.01,2013-06-04 19:11:00,
2013-06-04 14:16:00,58.1,56.1,30.03,ESE,108,8.1,8.1,93,0.00,,---,0.00,VWS V14.01,2013-06-04 19:16:00,
2013-06-04 14:22:00,58.3,56.6,30.03,ESE,109,7.6,10.5,94,0.00,,---,0.00,VWS V14.01,2013-06-04 19:22:00,
2013-06-04 14:27:00,58.8,57.1,30.03,SE,133,6.3,6.3,94,0.00,,---,0.00,VWS V14.01,2013-06-04 19:27:00,
2013-06-04 14:32:00,58.5,56.7,30.03,East,100,8.7,8.7,94,0.00,,---,0.00,VWS V14.01,2013-06-04 19:32:00,
2013-06-04 14:38:00,58.5,56.5,30.03,ESE,105,6.3,6.3,93,0.00,,---,0.00,VWS V14.01,2013-06-04 19:38:00,
2013-06-04 14:44:00,58.3,56.3,30.03,SE,125,5.4,5.4,93,0.00,,---,0.00,VWS V14.01,2013-06-04 19:44:00,
2013-06-04 14:50:00,58.6,56.6,30.03,ESE,114,5.4,10.1,93,0.00,,---,0.00,VWS V14.01,2013-06-04 19:50:00,
2013-06-04 14:55:00,59.2,57.2,30.03,ESE,123,6.7,8.7,93,0.00,,---,0.00,VWS V14.01,2013-06-04 19:55:00,
2013-06-04 15:02:00,59.2,57.2,30.03,ESE,112,4.0,4.0,93,0.00,,---,0.00,VWS V14.01,2013-06-04 20:02:00,
2013-06-04 15:07:00,59.0,57.0,30.03,ESE,120,6.3,6.3,93,0.00,,---,0.00,VWS V14.01,2013-06-04 20:07:00,
2013-06-04 15:13:00,58.8,56.8,30.03,ESE,110,8.1,8.1,93,0.00,,---,0.00,VWS V14.01,2013-06-04 20:13:00,
2013-06-04 15:19:00,58.8,56.8,30.03,East,99,8.7,8.7,93,0.00,,---,0.00,VWS V14.01,2013-06-04 20:19:00,
2013-06-04 15:25:00,58.5,56.2,30.03,East,93,8.1,8.1,92,0.00,,---,0.00,VWS V14.01,2013-06-04 20:25:00,
2013-06-04 15:31:00,58.5,56.5,30.03,SE,127,2.2,2.2,93,0.00,,---,0.00,VWS V14.01,2013-06-04 20:31:00,
2013-06-04 15:36:00,58.6,56.6,30.03,SSE,167,2.7,3.6,93,0.00,,---,0.00,VWS V14.01,2013-06-04 20:36:00,
2013-06-04 15:41:00,58.8,56.8,30.03,SSE,147,5.8,5.8,93,0.00,,---,0.00,VWS V14.01,2013-06-04 20:41:00,
2013-06-04 15:46:00,59.0,57.0,30.03,SSE,154,4.0,4.0,93,0.00,,---,0.00,VWS V14.01,2013-06-04 20:46:00,
2013-06-04 15:51:00,59.0,57.0,30.03,ESE,123,7.2,7.2,93,0.00,,---,0.00,VWS V14.01,2013-06-04 20:51:00,
2013-06-04 15:56:00,59.2,57.2,30.03,ESE,123,5.8,5.8,93,0.00,,---,0.00,VWS V14.01,2013-06-04 20:56:00,
2013-06-04 16:01:00,59.2,57.2,30.03,SE,132,3.6,5.8,93,0.00,,---,0.00,VWS V14.01,2013-06-04 21:01:00,
2013-06-04 16:07:00,58.8,56.8,30.03,ESE,120,5.8,5.8,93,0.00,,---,0.00,VWS V14.01,2013-06-04 21:07:00,
2013-06-04 16:12:00,58.8,56.8,30.03,SE,143,4.0,4.0,93,0.00,,---,0.00,VWS V14.01,2013-06-04 21:12:00,
2013-06-04 16:17:00,58.8,56.8,30.03,SE,127,3.6,4.0,93,0.00,,---,0.00,VWS V14.01,2013-06-04 21:17:00,
2013-06-04 16:23:00,58.8,56.8,30.03,ESE,115,5.8,6.3,93,0.00,,---,0.00,VWS V14.01,2013-06-04 21:23:00,
2013-06-04 16:29:00,59.0,57.0,30.03,ESE,123,6.3,6.3,93,0.00,,---,0.00,VWS V14.01,2013-06-04 21:29:00,
2013-06-04 16:34:00,59.0,57.0,30.03,ESE,117,5.8,5.8,93,0.00,,---,0.00,VWS V14.01,2013-06-04 21:34:00,
2013-06-04 16:39:00,59.2,57.2,30.03,ESE,117,5.8,5.8,93,0.00,,---,0.00,VWS V14.01,2013-06-04 21:39:00,
2013-06-04 16:45:00,59.2,57.2,30.03,SE,124,6.3,6.3,93,0.00,,---,0.00,VWS V14.01,2013-06-04 21:45:00,
2013-06-04 16:50:00,59.2,57.2,30.03,SE,138,7.6,7.6,93,0.00,,---,0.00,VWS V14.01,2013-06-04 21:50:00,
2013-06-04 16:56:00,59.2,57.2,30.03,SE,126,5.4,5.4,93,0.00,,---,0.00,VWS V14.01,2013-06-04 21:56:00,
2013-06-04 17:02:00,58.8,56.8,30.03,SE,129,5.8,5.8,93,0.00,,---,0.00,VWS V14.01,2013-06-04 22:02:00,
2013-06-04 17:07:00,58.5,56.5,30.03,SE,124,5.4,5.8,93,0.00,,---,0.00,VWS V14.01,2013-06-04 22:07:00,
2013-06-04 17:13:00,58.1,56.1,30.03,SE,127,6.3,6.3,93,0.00,,---,0.00,VWS V14.01,2013-06-04 22:13:00,
2013-06-04 17:18:00,58.1,56.1,30.03,ESE,123,2.7,5.8,93,0.00,,---,0.00,VWS V14.01,2013-06-04 22:18:00,
2013-06-04 17:23:00,58.1,56.1,30.03,ESE,123,2.7,5.8,93,0.00,,---,0.00,VWS V14.01,2013-06-04 22:23:00,
2013-06-04 17:29:00,58.1,56.1,30.03,ESE,122,3.1,5.8,93,0.00,,---,0.00,VWS V14.01,2013-06-04 22:29:00,
2013-06-04 17:35:00,58.1,56.1,30.03,East,94,5.4,5.4,93,0.00,,---,0.00,VWS V14.01,2013-06-04 22:35:00,
2013-06-04 17:42:00,57.7,55.7,30.03,ESE,111,8.3,8.3,93,0.00,,---,0.00,VWS V14.01,2013-06-04 22:42:00,
2013-06-04 17:47:00,57.7,55.7,30.03,ESE,119,6.3,6.3,93,0.00,,---,0.00,VWS V14.01,2013-06-04 22:47:00,
2013-06-04 17:52:00,57.7,55.7,30.03,SE,124,6.3,6.3,93,0.00,,---,0.00,VWS V14.01,2013-06-04 22:52:00,
2013-06-04 17:58:00,57.9,55.9,30.03,ESE,115,6.3,6.3,93,0.00,,---,0.00,VWS V14.01,2013-06-04 22:58:00,
2013-06-04 18:03:00,57.9,55.9,30.03,ESE,117,5.4,6.7,93,0.00,,---,0.00,VWS V14.01,2013-06-04 23:03:00,
2013-06-04 18:08:00,57.7,55.7,30.03,ESE,118,4.0,5.8,93,0.00,,---,0.00,VWS V14.01,2013-06-04 23:08:00,
2013-06-04 18:14:00,57.4,55.4,30.03,SE,127,5.8,6.7,93,0.00,,---,0.00,VWS V14.01,2013-06-04 23:14:00,
2013-06-04 18:19:00,57.4,55.4,30.03,SE,145,2.2,4.0,93,0.00,,---,0.00,VWS V14.01,2013-06-04 23:19:00,
2013-06-04 18:25:00,57.4,55.4,30.03,SE,125,0.0,0.0,93,0.00,,---,0.00,VWS V14.01,2013-06-04 23:25:00,
2013-06-04 18:31:00,57.6,55.6,30.03,ESE,114,4.9,6.3,93,0.00,,---,0.00,VWS V14.01,2013-06-04 23:31:00,
2013-06-04 18:36:00,57.7,55.7,30.03,ESE,108,10.1,10.1,93,0.00,,---,0.00,VWS V14.01,2013-06-04 23:36:00,
2013-06-04 18:41:00,57.7,55.7,30.03,ESE,109,5.8,5.8,93,0.00,,---,0.00,VWS V14.01,2013-06-04 23:41:00,
2013-06-04 18:46:00,57.4,55.4,30.03,ESE,105,5.8,7.6,93,0.00,,---,0.00,VWS V14.01,2013-06-04 23:46:00,
2013-06-04 18:51:00,57.2,55.2,30.03,ESE,104,9.2,9.2,93,0.00,,---,0.00,VWS V14.01,2013-06-04 23:51:00,
2013-06-04 18:57:00,57.0,55.0,30.03,ESE,106,4.9,7.6,93,0.00,,---,0.00,VWS V14.01,2013-06-04 23:57:00,
2013-06-04 19:02:00,56.8,54.8,30.03,ESE,104,4.0,5.4,93,0.00,,---,0.00,VWS V14.01,2013-06-05 00:02:00,
2013-06-04 19:08:00,56.5,54.5,30.03,East,95,5.8,5.8,93,0.00,,---,0.00,VWS V14.01,2013-06-05 00:08:00,
2013-06-04 19:13:00,56.7,54.7,30.03,East,86,2.7,2.7,93,0.00,,---,0.00,VWS V14.01,2013-06-05 00:13:00,
2013-06-04 19:18:00,56.8,54.5,30.03,ENE,69,4.9,4.9,92,0.00,,---,0.00,VWS V14.01,2013-06-05 00:18:00,
2013-06-04 19:23:00,56.5,54.2,30.03,ESE,105,10.1,10.1,92,0.00,,---,0.00,VWS V14.01,2013-06-05 00:23:00,
2013-06-04 19:29:00,56.5,54.2,30.03,ESE,107,8.7,11.0,92,0.00,,---,0.00,VWS V14.01,2013-06-05 00:29:00,
2013-06-04 19:34:00,56.5,54.2,30.03,ESE,113,12.8,12.8,92,0.00,,---,0.00,VWS V14.01,2013-06-05 00:34:00,
2013-06-04 19:39:00,56.3,54.3,30.03,ESE,108,12.8,12.8,93,0.00,,---,0.00,VWS V14.01,2013-06-05 00:39:00,
2013-06-04 19:45:00,56.3,54.3,30.03,ESE,123,10.1,11.0,93,0.00,,---,0.00,VWS V14.01,2013-06-05 00:45:00,
2013-06-04 19:50:00,56.1,54.1,30.03,East,99,12.3,13.2,93,0.00,,---,0.00,VWS V14.01,2013-06-05 00:50:00,
2013-06-04 19:55:00,56.3,54.3,30.03,ESE,102,10.1,10.1,93,0.00,,---,0.00,VWS V14.01,2013-06-05 00:55:00,
2013-06-04 20:00:00,56.3,54.3,30.03,ESE,106,11.0,11.0,93,0.00,,---,0.00,VWS V14.01,2013-06-05 01:00:00,
2013-06-04 20:05:00,56.1,54.1,30.03,ESE,109,11.4,12.8,93,0.00,,---,0.00,VWS V14.01,2013-06-05 01:05:00,
2013-06-04 20:11:00,56.1,54.1,30.06,ESE,113,7.6,7.6,93,0.00,,---,0.00,VWS V14.01,2013-06-05 01:11:00,
2013-06-04 20:16:00,56.1,54.1,30.06,ESE,104,10.1,11.9,93,0.00,,---,0.00,VWS V14.01,2013-06-05 01:16:00,
2013-06-04 20:22:00,56.1,54.1,30.03,East,95,8.7,9.2,93,0.00,,---,0.00,VWS V14.01,2013-06-05 01:22:00,
2013-06-04 20:27:00,56.1,54.1,30.03,ESE,117,5.8,5.8,93,0.00,,---,0.00,VWS V14.01,2013-06-05 01:27:00,
2013-06-04 20:32:00,56.1,54.1,30.03,ESE,119,4.9,6.3,93,0.00,,---,0.00,VWS V14.01,2013-06-05 01:32:00,
2013-06-04 20:38:00,56.1,54.1,30.03,ESE,112,5.4,6.3,93,0.00,,---,0.00,VWS V14.01,2013-06-05 01:38:00,
2013-06-04 20:44:00,56.1,53.8,30.03,East,100,8.1,8.3,92,0.00,,---,0.00,VWS V14.01,2013-06-05 01:44:00,
2013-06-04 20:49:00,56.1,53.8,30.03,ESE,108,6.3,7.6,92,0.00,,---,0.00,VWS V14.01,2013-06-05 01:49:00,
2013-06-04 20:54:00,56.1,53.8,30.03,East,98,6.3,6.3,92,0.00,,---,0.00,VWS V14.01,2013-06-05 01:54:00,
2013-06-04 21:00:00,56.3,54.0,30.03,ESE,115,5.8,10.5,92,0.00,,---,0.00,VWS V14.01,2013-06-05 02:00:00,
2013-06-04 21:06:00,56.3,54.0,30.03,ESE,110,7.6,8.3,92,0.00,,---,0.00,VWS V14.01,2013-06-05 02:06:00,
2013-06-04 21:11:00,56.3,54.0,30.03,SE,124,7.6,11.4,92,0.00,,---,0.00,VWS V14.01,2013-06-05 02:11:00,
2013-06-04 21:16:00,56.3,54.0,30.03,ESE,119,6.3,6.3,92,0.00,,---,0.00,VWS V14.01,2013-06-05 02:16:00,
2013-06-04 21:21:00,56.3,54.0,30.03,ESE,111,5.4,5.4,92,0.00,,---,0.00,VWS V14.01,2013-06-05 02:21:00,
2013-06-04 21:27:00,56.1,53.8,30.03,East,101,8.1,8.1,92,0.00,,---,0.00,VWS V14.01,2013-06-05 02:27:00,
2013-06-04 21:32:00,56.1,53.8,30.03,ESE,111,7.2,7.2,92,0.00,,---,0.00,VWS V14.01,2013-06-05 02:32:00,
2013-06-04 21:37:00,55.9,53.7,30.03,ESE,107,7.6,7.6,92,0.00,,---,0.00,VWS V14.01,2013-06-05 02:37:00,
2013-06-04 21:42:00,55.9,53.4,30.03,ESE,114,8.3,8.3,91,0.00,,---,0.00,VWS V14.01,2013-06-05 02:42:00,
2013-06-04 21:48:00,55.9,53.4,30.03,ESE,114,8.3,8.3,91,0.00,,---,0.00,VWS V14.01,2013-06-05 02:48:00,
2013-06-04 21:54:00,56.1,53.5,30.06,ESE,114,6.3,6.3,91,0.00,,---,0.00,VWS V14.01,2013-06-05 02:54:00,
2013-06-04 21:59:00,56.1,53.5,30.06,East,96,7.6,7.6,91,0.00,,---,0.00,VWS V14.01,2013-06-05 02:59:00,
2013-06-04 22:04:00,55.9,53.4,30.06,ESE,114,8.3,8.3,91,0.00,,---,0.00,VWS V14.01,2013-06-05 03:04:00,
2013-06-04 22:10:00,55.9,53.4,30.03,ESE,115,8.1,8.1,91,0.00,,---,0.00,VWS V14.01,2013-06-05 03:10:00,
2013-06-04 22:16:00,56.1,53.5,30.03,ESE,116,5.8,5.8,91,0.00,,---,0.00,VWS V14.01,2013-06-05 03:16:00,
2013-06-04 22:22:00,56.1,53.5,30.03,ESE,122,7.2,8.7,91,0.00,,---,0.00,VWS V14.01,2013-06-05 03:22:00,
2013-06-04 22:27:00,56.1,53.5,30.06,ESE,108,8.1,8.1,91,0.00,,---,0.00,VWS V14.01,2013-06-05 03:27:00,
2013-06-04 22:32:00,56.3,54.0,30.06,ESE,114,10.5,10.5,92,0.00,,---,0.00,VWS V14.01,2013-06-05 03:32:00,
2013-06-04 22:38:00,56.3,54.0,30.03,ESE,109,8.1,8.1,92,0.00,,---,0.00,VWS V14.01,2013-06-05 03:38:00,
2013-06-04 22:43:00,56.3,54.0,30.03,ESE,113,3.6,6.3,92,0.00,,---,0.00,VWS V14.01,2013-06-05 03:43:00,
2013-06-04 22:48:00,56.3,53.7,30.03,ESE,112,5.4,5.8,91,0.00,,---,0.00,VWS V14.01,2013-06-05 03:48:00,
2013-06-04 22:54:00,56.3,53.7,30.03,ESE,120,5.8,5.8,91,0.00,,---,0.00,VWS V14.01,2013-06-05 03:54:00,
2013-06-04 23:00:00,56.1,53.5,30.03,ESE,113,4.0,6.3,91,0.00,,---,0.00,VWS V14.01,2013-06-05 04:00:00,
2013-06-04 23:01:00,56.1,53.5,30.03,ESE,114,4.9,6.3,91,0.00,,---,0.00,VWS V14.01,2013-06-05 04:01:00,
2013-06-04 23:05:00,56.1,53.5,30.03,ESE,109,7.6,7.6,91,0.00,,---,0.00,VWS V14.01,2013-06-05 04:05:00,
2013-06-04 23:07:00,56.1,53.5,30.03,ESE,113,5.8,8.3,91,0.00,,---,0.00,VWS V14.01,2013-06-05 04:07:00,
2013-06-04 23:12:00,56.1,53.5,30.03,SE,124,5.8,5.8,91,0.00,,---,0.00,VWS V14.01,2013-06-05 04:12:00,
2013-06-04 23:17:00,56.1,53.5,30.03,East,100,7.6,7.6,91,0.00,,---,0.00,VWS V14.01,2013-06-05 04:17:00,
2013-06-04 23:23:00,56.1,53.5,30.03,ENE,72,8.7,8.7,91,0.00,,---,0.00,VWS V14.01,2013-06-05 04:23:00,
2013-06-04 23:28:00,55.9,53.4,30.03,East,97,4.0,8.3,91,0.00,,---,0.00,VWS V14.01,2013-06-05 04:28:00,
2013-06-04 23:33:00,55.9,53.4,30.03,East,93,8.7,8.7,91,0.00,,---,0.00,VWS V14.01,2013-06-05 04:33:00,
2013-06-04 23:38:00,55.9,53.4,30.03,ESE,112,5.4,8.1,91,0.00,,---,0.00,VWS V14.01,2013-06-05 04:38:00,
2013-06-04 23:43:00,55.9,53.4,30.03,ESE,115,5.8,7.2,91,0.00,,---,0.00,VWS V14.01,2013-06-05 04:43:00,
2013-06-04 23:49:00,55.9,53.4,30.03,SE,124,6.3,6.3,91,0.00,,---,0.00,VWS V14.01,2013-06-05 04:49:00,
2013-06-04 23:55:00,55.9,53.4,30.03,ESE,118,5.4,8.1,91,0.00,,---,0.00,VWS V14.01,2013-06-05 04:55:00,